Time;durP1;ratioP1;P1;durP2;ratioP2;P2;SDS_P1;SDS_P2;PMS_P1;PMS_P2;Temp;Humidity;BMP_temperature;BMP_pressure;BME280_temperature;BME280_humidity;BME280_pressure;Samples;Min_cycle;Max_cycle;Signal;HPM_P1;HPM_P2
2023/03/20 00:01:02;;;;;;;4.45;3.25;;;;;;;11.15;72.23;100888.50;4177585;28;20479;-68
2023/03/20 00:03:05;;;;;;;4.35;2.90;;;;;;;11.08;71.81;100884.91;4176877;28;20029;-68
2023/03/20 00:05:17;;;;;;;4.38;2.95;;;;;;;11.03;71.96;100885.66;4177992;28;20095;-68
2023/03/20 00:07:20;;;;;;;4.03;2.58;;;;;;;10.98;72.35;100891.66;4172864;28;20413;-69
2023/03/20 00:09:25;;;;;;;4.15;2.80;;;;;;;10.98;73.22;100891.66;4158984;28;20033;-68
2023/03/20 00:11:31;;;;;;;4.90;3.20;;;;;;;10.98;72.91;100891.66;4170441;28;20046;-69
2023/03/20 00:13:36;;;;;;;8.13;2.72;;;;;;;10.97;73.21;100889.03;4175308;28;20037;-69
2023/03/20 00:15:42;;;;;;;5.13;2.83;;;;;;;10.98;72.96;100888.16;4178201;28;20037;-69
2023/03/20 00:17:45;;;;;;;4.95;3.38;;;;;;;11.03;72.97;100888.28;4170257;28;20530;-69
2023/03/20 00:19:48;;;;;;;3.88;2.90;;;;;;;11.00;72.54;100894.28;4159811;28;20047;-69
2023/03/20 00:21:53;;;;;;;4.68;2.65;;;;;;;11.00;73.12;100895.16;4177518;28;20033;-69
2023/03/20 00:23:56;;;;;;;4.15;2.90;;;;;;;10.99;72.83;100900.34;4159885;28;20124;-69
2023/03/20 00:25:59;;;;;;;4.00;2.70;;;;;;;10.96;73.39;100898.53;4175723;28;20048;-70
2023/03/20 00:28:37;;;;;;;4.82;2.88;;;;;;;10.96;73.36;100897.66;4172851;28;20052;-69
2023/03/20 00:30:40;;;;;;;4.20;3.10;;;;;;;10.93;73.14;100895.00;4158060;28;20037;-69
2023/03/20 00:32:43;;;;;;;3.65;2.60;;;;;;;10.93;73.09;100895.00;4145978;28;20045;-69
2023/03/20 00:34:46;;;;;;;3.67;2.88;;;;;;;10.93;73.07;100892.41;4159662;28;20076;-69
2023/03/20 00:36:49;;;;;;;3.97;2.60;;;;;;;11.00;72.84;100894.28;4156480;28;20113;-69
2023/03/20 00:38:53;;;;;;;3.60;2.60;;;;;;;10.99;72.68;100900.34;4158932;28;20049;-69
2023/03/20 00:40:56;;;;;;;3.83;2.50;;;;;;;10.97;73.00;100899.44;4176406;28;20550;-69
2023/03/20 00:43:01;;;;;;;3.03;2.05;;;;;;;10.96;72.53;100895.94;4156698;28;20037;-69
2023/03/20 00:45:09;;;;;;;3.58;2.25;;;;;;;10.97;72.40;100896.84;4155970;28;20029;-69
2023/03/20 00:47:18;;;;;;;3.67;2.50;;;;;;;10.97;72.25;100902.03;4159154;28;20044;-69
2023/03/20 00:49:25;;;;;;;4.20;2.53;;;;;;;10.99;72.58;100902.94;4159894;28;20046;-69
2023/03/20 00:51:27;;;;;;;3.63;2.35;;;;;;;10.97;72.65;100889.91;4146985;28;20489;-68
2023/03/20 00:53:30;;;;;;;2.13;1.70;;;;;;;11.02;72.10;100892.59;4159497;28;20041;-68
2023/03/20 00:55:33;;;;;;;2.95;1.90;;;;;;;10.98;72.02;100893.34;4174268;28;20038;-69
2023/03/20 00:57:40;;;;;;;2.22;1.90;;;;;;;10.97;72.92;100896.84;4159187;28;20037;-69
2023/03/20 00:59:52;;;;;;;3.83;2.40;;;;;;;11.02;72.70;100895.19;4160720;28;20044;-69
2023/03/20 01:01:57;;;;;;;3.97;2.10;;;;;;;11.03;72.61;100890.88;4162681;28;20056;-69
2023/03/20 01:04:00;;;;;;;5.35;1.90;;;;;;;10.99;72.57;100892.53;4146785;28;20147;-69
2023/03/20 01:06:03;;;;;;;3.95;2.38;;;;;;;11.01;71.98;100898.66;4179454;28;20033;-69
2023/03/20 01:08:15;;;;;;;2.28;1.80;;;;;;;11.00;72.72;100902.97;4143150;28;20469;-69
2023/03/20 01:10:18;;;;;;;2.80;1.70;;;;;;;11.05;72.60;100902.19;4145570;28;20050;-69
2023/03/20 01:12:21;;;;;;;2.10;1.70;;;;;;;11.03;72.60;100896.94;4157304;28;20057;-68
2023/03/20 01:14:25;;;;;;;4.53;2.05;;;;;;;10.95;72.47;100901.09;4161166;28;20477;-69
2023/03/20 01:16:28;;;;;;;2.33;1.92;;;;;;;10.93;71.76;100908.03;4162711;28;20505;-68
2023/03/20 01:18:32;;;;;;;1.90;1.50;;;;;;;10.96;72.49;100900.28;4159735;28;20440;-68
2023/03/20 01:20:35;;;;;;;;;;;;;;;10.89;71.75;100901.00;4156538;28;20030;-68
2023/03/20 01:22:38;;;;;;;4.05;1.70;;;;;;;10.87;72.73;100903.56;4163265;28;19963;-68
2023/03/20 01:24:41;;;;;;;2.55;1.50;;;;;;;10.92;72.84;100899.34;4174946;28;20041;-68
2023/03/20 01:26:45;;;;;;;2.72;2.08;;;;;;;10.95;71.92;100896.81;4179682;28;20041;-68
2023/03/20 01:28:48;;;;;;;3.67;1.85;;;;;;;11.01;72.32;100901.25;4162761;28;20488;-68
2023/03/20 01:30:52;;;;;;;5.10;1.70;;;;;;;10.99;72.55;100897.72;4159201;28;20046;-68
2023/03/20 01:32:56;;;;;;;1.83;1.45;;;;;;;11.02;71.55;100903.00;4179566;28;20033;-68
2023/03/20 01:35:00;;;;;;;3.40;1.60;;;;;;;11.00;72.50;100905.56;4156912;28;20041;-68
2023/03/20 01:37:03;;;;;;;3.85;1.60;;;;;;;11.00;72.52;100902.97;4161496;28;20034;-69
2023/03/20 01:39:07;;;;;;;2.97;1.85;;;;;;;10.98;72.09;100895.97;4163524;28;20045;-68
2023/03/20 01:41:13;;;;;;;2.88;1.83;;;;;;;10.98;72.01;100904.66;4155689;28;20061;-69
2023/03/20 01:43:18;;;;;;;5.53;1.80;;;;;;;10.95;72.18;100912.41;4156700;28;20044;-68
2023/03/20 01:45:32;;;;;;;1.92;1.38;;;;;;;10.95;71.83;100911.50;4179945;28;20033;-69
2023/03/20 01:47:35;;;;;;;2.05;1.67;;;;;;;10.91;72.67;100913.19;4163066;28;20057;-68
2023/03/20 01:50:16;;;;;;;4.57;1.63;;;;;;;10.94;72.06;100909.78;4154458;28;20520;-68
2023/03/20 01:52:21;;;;;;;5.07;1.60;;;;;;;10.92;72.93;100916.66;4157817;28;20046;-69
2023/03/20 01:54:26;;;;;;;2.72;1.60;;;;;;;10.97;72.84;100920.25;4149505;28;20046;-69
2023/03/20 01:56:40;;;;;;;2.60;1.67;;;;;;;10.91;73.01;100910.59;4156716;28;20072;-68
2023/03/20 01:58:47;;;;;;;3.72;1.75;;;;;;;10.95;72.91;100921.91;4178362;28;20155;-68
2023/03/20 02:00:50;;;;;;;2.42;1.77;;;;;;;10.97;73.05;100922.84;4157244;28;20059;-69
2023/03/20 02:02:55;;;;;;;2.28;1.63;;;;;;;10.98;72.25;100916.78;4151084;28;20096;-68
2023/03/20 02:05:25;;;;;;;4.50;1.67;;;;;;;10.97;72.15;100918.50;4155583;28;20045;-68
2023/03/20 02:07:30;;;;;;;2.67;1.80;;;;;;;10.96;72.44;100924.56;4148898;28;20134;-68
2023/03/20 02:09:46;;;;;;;3.63;1.80;;;;;;;10.96;72.53;100919.34;4160761;28;20044;-69
2023/03/20 02:12:15;;;;;;;3.83;1.63;;;;;;;10.93;72.99;100923.63;4159760;28;20556;-69
2023/03/20 02:14:19;;;;;;;3.30;1.85;;;;;;;10.92;73.16;100916.66;4160239;28;20695;-69
2023/03/20 02:16:30;;;;;;;1.58;1.30;;;;;;;10.91;72.59;100921.00;4157804;28;20410;-69
2023/03/20 02:18:51;;;;;;;3.10;1.73;;;;;;;10.89;72.37;100921.81;4160392;28;20061;-69
2023/03/20 02:21:29;;;;;;;2.33;1.52;;;;;;;10.91;72.80;100930.53;4171980;28;20519;-70
2023/03/20 02:24:04;;;;;;;2.92;1.48;;;;;;;10.85;73.13;100933.88;4176660;28;20075;-70
2023/03/20 02:26:46;;;;;;;1.85;1.63;;;;;;;10.86;72.85;100935.63;4160834;28;20136;-70
2023/03/20 02:29:24;;;;;;;2.03;1.38;;;;;;;10.83;72.59;100931.25;4156641;28;20444;-70
2023/03/20 02:31:54;;;;;;;2.72;1.77;;;;;;;10.79;72.81;100932.03;4161104;28;20041;-69
2023/03/20 02:34:19;;;;;;;2.55;2.00;;;;;;;10.78;71.78;100935.47;4156459;28;20060;-69
2023/03/20 02:36:55;;;;;;;2.63;1.83;;;;;;;10.65;72.25;100931.72;4144207;28;20049;-69
2023/03/20 02:39:37;;;;;;;2.00;1.55;;;;;;;10.68;73.25;100932.66;4176273;28;20447;-69
2023/03/20 02:41:48;;;;;;;2.60;1.70;;;;;;;10.73;72.69;100926.72;4138141;28;20488;-71
2023/03/20 02:44:02;;;;;;;3.42;1.70;;;;;;;10.75;72.50;100927.59;4161079;28;20076;-69
2023/03/20 02:46:11;;;;;;;5.22;2.05;;;;;;;10.78;73.12;100929.41;4171159;28;20041;-68
2023/03/20 02:48:25;;;;;;;7.72;1.85;;;;;;;10.78;73.28;100929.41;4154415;28;20037;-68
2023/03/20 02:50:37;;;;;;;4.15;1.95;;;;;;;10.79;72.79;100925.94;4156708;28;20497;-68
2023/03/20 02:52:46;;;;;;;2.95;2.05;;;;;;;10.76;73.02;100918.06;4178228;28;20575;-69
2023/03/20 02:54:59;;;;;;;3.53;1.73;;;;;;;10.78;72.85;100932.00;4150711;28;20301;-68
2023/03/20 02:57:07;;;;;;;2.63;1.70;;;;;;;10.79;73.26;100932.03;4157965;28;20041;-68
2023/03/20 02:59:20;;;;;;;2.38;1.88;;;;;;;10.73;72.49;100926.72;4160383;28;20112;-68
2023/03/20 03:01:32;;;;;;;3.33;2.63;;;;;;;10.71;73.23;100924.91;4160056;28;20447;-68
2023/03/20 03:03:38;;;;;;;3.25;2.10;;;;;;;10.73;73.13;100934.50;4158180;28;20493;-68
2023/03/20 03:05:47;;;;;;;2.42;1.70;;;;;;;10.74;73.15;100931.03;4159292;28;20540;-68
2023/03/20 03:07:55;;;;;;;3.17;1.70;;;;;;;10.80;72.74;100936.38;4143864;28;20536;-68
2023/03/20 03:10:03;;;;;;;4.53;2.00;;;;;;;10.80;73.70;100936.38;4157474;28;20041;-68
2023/03/20 03:12:12;;;;;;;5.28;2.17;;;;;;;10.80;73.03;100938.97;4178445;28;20033;-68
2023/03/20 03:14:21;;;;;;;2.38;1.73;;;;;;;10.78;73.50;100939.81;4175889;28;20043;-68
2023/03/20 03:16:27;;;;;;;3.28;1.80;;;;;;;10.78;72.80;100934.59;4159303;28;20037;-68
2023/03/20 03:18:33;;;;;;;3.42;1.85;;;;;;;10.81;73.44;100932.94;4180279;28;20443;-69
2023/03/20 03:20:39;;;;;;;5.10;2.33;;;;;;;10.85;73.06;100935.59;4161506;28;20042;-69
2023/03/20 03:22:42;;;;;;;2.72;2.03;;;;;;;10.84;73.39;100939.94;4159280;28;20060;-68
2023/03/20 03:24:48;;;;;;;4.55;2.28;;;;;;;10.82;72.96;100944.22;4157415;28;20037;-68
2023/03/20 03:26:52;;;;;;;3.78;1.75;;;;;;;10.80;72.86;100938.09;4161849;28;20041;-68
2023/03/20 03:29:00;;;;;;;2.80;2.10;;;;;;;10.76;73.63;100934.56;4161690;28;20401;-69
2023/03/20 03:31:07;;;;;;;4.00;1.85;;;;;;;10.78;73.39;100932.00;4179221;28;20037;-68
2023/03/20 03:33:19;;;;;;;3.15;2.30;;;;;;;10.74;73.01;100928.44;4161590;28;20103;-68
2023/03/20 03:35:23;;;;;;;1.92;1.70;;;;;;;10.70;73.24;100934.41;4165940;28;20041;-68
2023/03/20 03:37:37;;;;;;;4.47;2.85;;;;;;;10.74;73.27;100922.38;4161495;28;20516;-69
2023/03/20 03:39:44;;;;;;;2.67;1.65;;;;;;;10.71;73.90;100920.56;4175472;28;20033;-69
2023/03/20 03:41:52;;;;;;;5.40;2.10;;;;;;;10.71;74.01;100917.13;4161551;28;20042;-68
2023/03/20 03:44:05;;;;;;;2.72;1.75;;;;;;;10.65;73.89;100923.06;4161409;28;20041;-69
2023/03/20 03:46:13;;;;;;;2.17;1.70;;;;;;;10.64;73.24;100919.59;4161406;28;20048;-69
2023/03/20 03:48:19;;;;;;;3.20;2.45;;;;;;;10.64;73.72;100930.00;4161616;28;20041;-69
2023/03/20 03:50:26;;;;;;;2.50;1.75;;;;;;;10.67;73.55;100918.75;4178953;28;20040;-69
2023/03/20 03:52:33;;;;;;;3.83;2.42;;;;;;;10.68;73.53;100928.31;4159484;28;20402;-69
2023/03/20 03:54:43;;;;;;;3.15;1.90;;;;;;;10.71;73.42;100925.78;4157603;28;20548;-69
2023/03/20 03:57:12;;;;;;;3.97;2.00;;;;;;;10.65;73.14;100925.66;4165681;28;20057;-69
2023/03/20 03:59:23;;;;;;;3.25;1.98;;;;;;;10.65;73.82;100928.25;4168811;28;20037;-69
2023/03/20 04:01:28;;;;;;;4.75;2.25;;;;;;;10.64;72.99;100930.00;4160756;28;20064;-69
2023/03/20 04:03:38;;;;;;;4.22;2.53;;;;;;;10.67;73.26;100936.94;4172355;28;20044;-69
2023/03/20 04:05:44;;;;;;;4.00;2.58;;;;;;;10.62;72.84;100944.66;4161300;28;20120;-68
2023/03/20 04:07:52;;;;;;;5.55;2.90;;;;;;;10.64;72.63;100948.19;4174669;28;20091;-69
2023/03/20 04:09:55;;;;;;;4.70;3.00;;;;;;;10.61;73.05;100953.28;4157859;28;20555;-68
2023/03/20 04:11:58;;;;;;;8.48;3.25;;;;;;;10.62;73.43;100954.19;4160389;28;20048;-69
2023/03/20 04:14:01;;;;;;;3.75;2.72;;;;;;;10.63;73.80;100948.13;4143274;28;20045;-68
2023/03/20 04:16:12;;;;;;;4.32;3.13;;;;;;;10.68;73.37;100954.31;4159764;28;20501;-68
2023/03/20 04:18:17;;;;;;;3.90;2.42;;;;;;;10.69;73.29;100945.69;4178171;28;20596;-68
2023/03/20 04:20:21;;;;;;;2.65;2.10;;;;;;;10.70;73.06;100963.03;4159841;28;20504;-68
2023/03/20 04:22:25;;;;;;;3.30;2.05;;;;;;;10.73;73.07;100968.31;4169536;28;20132;-69
2023/03/20 04:24:29;;;;;;;3.85;2.78;;;;;;;10.67;73.43;100962.97;4176237;28;20041;-68
2023/03/20 04:26:32;;;;;;;3.63;2.50;;;;;;;10.68;73.48;100959.53;4158346;28;20041;-68
2023/03/20 04:28:35;;;;;;;4.82;2.97;;;;;;;10.68;73.16;100963.84;4161225;28;20041;-69
2023/03/20 04:30:59;;;;;;;5.95;3.33;;;;;;;10.69;72.88;100963.88;4177651;28;20040;-69
2023/03/20 04:33:23;;;;;;;4.45;2.70;;;;;;;10.64;73.81;100960.28;4176681;28;20068;-69
2023/03/20 04:35:40;;;;;;;3.83;2.60;;;;;;;10.64;73.52;100949.88;4139182;28;20469;-69
2023/03/20 04:37:47;;;;;;;5.35;2.58;;;;;;;10.63;73.47;100950.72;4150768;28;20046;-68
2023/03/20 04:39:52;;;;;;;3.60;2.70;;;;;;;10.57;73.14;100954.09;4144538;28;20040;-68
2023/03/20 04:41:55;;;;;;;5.22;2.92;;;;;;;10.54;73.43;100953.13;4147903;28;20049;-69
2023/03/20 04:43:58;;;;;;;4.45;3.17;;;;;;;10.57;73.30;100961.00;4162901;28;20029;-68
2023/03/20 04:46:01;;;;;;;6.10;3.17;;;;;;;10.59;73.87;100962.78;4147954;28;20052;-69
2023/03/20 04:48:04;;;;;;;5.18;3.55;;;;;;;10.59;73.73;100964.53;4158998;28;20128;-68
2023/03/20 04:50:10;;;;;;;4.88;3.38;;;;;;;10.62;73.68;100960.25;4161540;28;20037;-69
2023/03/20 04:52:14;;;;;;;4.97;3.13;;;;;;;10.60;73.79;100961.06;4162710;28;20037;-68
2023/03/20 04:54:19;;;;;;;8.73;3.22;;;;;;;10.61;73.36;100965.44;4142233;28;20053;-68
2023/03/20 04:56:22;;;;;;;5.88;3.33;;;;;;;10.57;73.68;100968.78;4160938;28;20057;-68
2023/03/20 04:58:26;;;;;;;4.22;3.10;;;;;;;10.56;74.06;100964.47;4147016;28;20476;-68
2023/03/20 05:00:29;;;;;;;5.55;3.65;;;;;;;10.57;73.34;100958.41;4146954;28;20088;-62
2023/03/20 05:02:32;;;;;;;3.85;2.40;;;;;;;10.96;75.05;100962.72;4179816;28;20388;-61
2023/03/20 05:04:35;;;;;;;5.00;2.30;;;;;;;11.43;74.30;100961.88;4162836;28;20045;-60
2023/03/20 05:06:39;;;;;;;4.25;2.90;;;;;;;11.72;73.50;100965.00;4161269;28;20030;-61
2023/03/20 05:08:42;;;;;;;8.40;3.25;;;;;;;11.93;72.35;100964.56;4163121;28;20036;-61
2023/03/20 05:10:45;;;;;;;7.40;3.45;;;;;;;12.11;71.38;100963.09;4162304;28;20048;-61
2023/03/20 05:13:07;;;;;;;5.53;3.17;;;;;;;12.15;70.53;100960.56;4176717;28;20147;-61
2023/03/20 05:15:27;;;;;;;4.90;3.05;;;;;;;12.19;70.30;100967.59;4159140;28;20068;-61
2023/03/20 05:17:36;;;;;;;6.75;3.80;;;;;;;12.22;69.84;100962.41;4175623;28;20492;-61
2023/03/20 05:20:03;;;;;;;6.30;3.92;;;;;;;12.25;69.62;100966.81;4161017;28;20463;-67
2023/03/20 05:22:18;;;;;;;6.75;4.50;;;;;;;11.98;68.80;100962.88;4161436;28;20488;-68
2023/03/20 05:24:23;;;;;;;7.88;4.18;;;;;;;11.72;69.07;100974.56;4178219;28;20573;-67
2023/03/20 05:26:38;;;;;;;7.53;4.57;;;;;;;11.48;69.97;100976.75;4159900;28;20484;-68
2023/03/20 05:29:14;;;;;;;5.83;4.30;;;;;;;11.26;70.57;100978.06;4134085;28;20052;-68
2023/03/20 05:31:35;;;;;;;6.57;4.15;;;;;;;11.13;71.73;100979.53;4180691;28;20295;-68
2023/03/20 05:33:47;;;;;;;8.75;5.15;;;;;;;11.08;71.92;100986.41;4164032;28;20038;-69
2023/03/20 05:36:03;;;;;;;6.80;4.65;;;;;;;11.01;72.00;100979.31;4158951;28;20069;-68
2023/03/20 05:38:40;;;;;;;7.18;4.68;;;;;;;10.90;71.93;100978.19;4125708;28;20056;-68
2023/03/20 05:41:04;;;;;;;8.40;4.93;;;;;;;10.88;72.27;100977.25;4178336;28;20518;-68
2023/03/20 05:43:15;;;;;;;6.88;4.38;;;;;;;10.86;72.73;100969.44;4142983;28;20581;-68
2023/03/20 05:45:53;;;;;;;7.57;4.93;;;;;;;10.79;73.29;100973.66;4107722;28;20053;-67
2023/03/20 05:48:15;;;;;;;6.53;4.35;;;;;;;10.77;72.63;100972.72;4163278;28;20064;-68
2023/03/20 05:50:31;;;;;;;6.13;4.10;;;;;;;10.80;73.28;100961.50;4161727;28;20087;-68
2023/03/20 05:52:47;;;;;;;8.93;5.15;;;;;;;10.76;73.36;100970.09;4164186;28;20045;-68
2023/03/20 05:55:30;;;;;;;8.07;5.68;;;;;;;10.79;73.38;100957.13;4108157;28;20043;-67
2023/03/20 05:58:02;;;;;;;7.55;4.82;;;;;;;10.73;73.73;100964.81;4088446;28;20083;-68
2023/03/20 06:00:25;;;;;;;7.50;4.43;;;;;;;10.73;73.12;100965.72;4142480;28;20135;-68
2023/03/20 06:02:48;;;;;;;7.90;5.25;;;;;;;10.73;73.54;100970.91;4175475;28;20068;-68
2023/03/20 06:05:11;;;;;;;11.05;6.22;;;;;;;10.75;73.18;100978.75;4179981;28;20053;-69
2023/03/20 06:07:22;;;;;;;7.95;4.90;;;;;;;10.82;73.15;100978.91;4163172;28;20068;-68
2023/03/20 06:09:34;;;;;;;9.73;6.15;;;;;;;10.79;73.32;100990.94;4163049;28;20037;-69
2023/03/20 06:11:42;;;;;;;8.98;5.32;;;;;;;10.65;73.04;100995.88;4163005;28;20460;-69
2023/03/20 06:13:45;;;;;;;8.43;5.93;;;;;;;10.54;73.63;101003.44;4162540;28;20068;-68
2023/03/20 06:15:49;;;;;;;8.82;5.53;;;;;;;10.47;74.09;101009.31;4154748;28;20116;-69
2023/03/20 06:17:53;;;;;;;8.48;6.05;;;;;;;10.50;73.25;101006.78;4177000;28;20037;-68
2023/03/20 06:19:56;;;;;;;9.98;5.95;;;;;;;10.53;73.29;101011.16;4163168;28;20081;-69
2023/03/20 06:21:59;;;;;;;9.00;6.65;;;;;;;10.55;73.66;101009.50;4162856;28;20084;-69
2023/03/20 06:24:02;;;;;;;9.90;7.28;;;;;;;10.64;73.40;101001.91;4162866;28;20042;-68
2023/03/20 06:26:05;;;;;;;7.88;5.72;;;;;;;10.68;73.24;101008.06;4146614;28;20045;-68
2023/03/20 06:28:21;;;;;;;8.40;6.13;;;;;;;10.73;73.50;101012.53;4162719;28;20647;-68
2023/03/20 06:30:31;;;;;;;9.45;5.13;;;;;;;10.67;73.53;101007.16;4162526;28;20037;-68
2023/03/20 06:32:34;;;;;;;9.82;7.00;;;;;;;10.70;73.48;101006.34;4162703;28;21348;-68
2023/03/20 06:34:39;;;;;;;;;;;;;;;10.67;73.20;101011.50;4146699;28;20064;-68
2023/03/20 06:36:42;;;;;;;9.27;5.97;;;;;;;10.67;73.60;101014.97;4157404;28;19921;-68
2023/03/20 06:38:55;;;;;;;8.63;6.07;;;;;;;10.71;73.24;101013.31;4162533;28;20116;-68
2023/03/20 06:40:59;;;;;;;8.07;5.53;;;;;;;10.74;73.07;101016.84;4162693;28;20037;-68
2023/03/20 06:43:03;;;;;;;9.20;5.93;;;;;;;10.69;74.00;101012.41;4157980;28;20044;-68
2023/03/20 06:45:18;;;;;;;9.05;5.80;;;;;;;10.69;73.31;101018.50;4162284;28;20056;-68
2023/03/20 06:47:33;;;;;;;7.78;5.78;;;;;;;10.67;73.89;101020.16;4162286;28;20091;-68
2023/03/20 06:49:36;;;;;;;9.25;6.13;;;;;;;10.70;73.66;101028.03;4161881;28;20042;-68
2023/03/20 06:51:40;;;;;;;8.63;6.72;;;;;;;10.72;73.71;101028.97;4162379;28;20043;-68
2023/03/20 06:53:43;;;;;;;9.98;6.03;;;;;;;10.69;73.80;101035.78;4162288;28;20041;-68
2023/03/20 06:55:53;;;;;;;9.82;6.72;;;;;;;10.66;74.20;101026.22;4162100;28;20044;-68
2023/03/20 06:57:56;;;;;;;9.88;7.25;;;;;;;10.69;73.84;101028.91;4161726;28;20036;-68
2023/03/20 07:00:00;;;;;;;8.98;6.55;;;;;;;10.71;74.05;101021.13;4145914;28;20387;-68
2023/03/20 07:02:06;;;;;;;8.85;5.72;;;;;;;10.79;73.66;101025.66;4157314;28;20521;-68
2023/03/20 07:04:09;;;;;;;9.30;6.28;;;;;;;10.88;73.59;101035.38;4160310;28;20309;-68
2023/03/20 07:06:18;;;;;;;12.48;6.68;;;;;;;10.85;74.01;101032.72;4162048;28;20041;-67
2023/03/20 07:08:21;;;;;;;10.77;6.35;;;;;;;10.81;73.29;101036.97;4152622;28;20042;-68
2023/03/20 07:10:25;;;;;;;12.57;7.20;;;;;;;10.77;73.62;101032.53;4162522;28;20038;-68
2023/03/20 07:12:28;;;;;;;10.13;6.30;;;;;;;10.78;73.72;101023.91;4161977;28;20072;-68
2023/03/20 07:14:34;;;;;;;12.57;8.10;;;;;;;10.89;74.26;101020.66;4162218;28;20038;-68
2023/03/20 07:16:41;;;;;;;12.25;7.28;;;;;;;10.87;74.24;101020.63;4157246;28;20033;-68
2023/03/20 07:18:45;;;;;;;10.75;7.53;;;;;;;10.92;73.76;101021.59;4159438;28;20029;-68
2023/03/20 07:20:48;;;;;;;10.75;7.53;;;;;;;10.93;74.19;101019.88;4161427;28;20103;-68
2023/03/20 07:22:51;;;;;;;11.68;6.35;;;;;;;10.99;73.78;101020.91;4161644;28;20044;-68
2023/03/20 07:24:58;;;;;;;9.95;6.60;;;;;;;10.95;73.79;101016.47;4161166;28;20154;-68
2023/03/20 07:27:01;;;;;;;11.85;8.30;;;;;;;11.03;73.41;101024.44;4155597;28;20052;-68
2023/03/20 07:29:06;;;;;;;11.32;7.75;;;;;;;11.01;73.83;101026.13;4153533;28;20045;-68
2023/03/20 07:31:19;;;;;;;10.73;7.22;;;;;;;11.10;73.34;101026.31;4143871;28;20045;-68
2023/03/20 07:33:23;;;;;;;11.90;8.35;;;;;;;11.15;73.70;101022.06;4141869;28;20041;-68
2023/03/20 07:35:29;;;;;;;10.43;7.25;;;;;;;11.13;73.21;101031.59;4161037;28;20046;-68
2023/03/20 07:37:32;;;;;;;12.90;7.85;;;;;;;11.23;73.05;101024.84;4161127;28;20045;-68
2023/03/20 07:39:37;;;;;;;11.25;7.35;;;;;;;11.27;72.95;101026.69;4158023;28;20240;-69
2023/03/20 07:42:04;;;;;;;11.88;7.72;;;;;;;11.22;72.89;101030.91;4160583;28;20377;-68
2023/03/20 07:44:20;;;;;;;12.15;8.25;;;;;;;11.14;73.50;101025.53;4159132;28;20472;-68
2023/03/20 07:46:27;;;;;;;13.65;8.95;;;;;;;11.18;72.48;101034.28;4155922;28;20099;-68
2023/03/20 07:48:30;;;;;;;14.63;8.55;;;;;;;11.15;72.79;101034.22;4159307;28;20505;-68
2023/03/20 07:50:35;;;;;;;12.15;8.13;;;;;;;10.98;73.03;101034.75;4137598;28;20139;-68
2023/03/20 07:52:37;;;;;;;15.07;10.43;;;;;;;11.01;73.67;101046.94;4158054;28;20041;-68
2023/03/20 07:54:40;;;;;;;13.50;9.07;;;;;;;10.87;74.10;101043.16;4159611;28;20038;-68
2023/03/20 07:56:44;;;;;;;15.55;9.20;;;;;;;10.92;74.21;101046.72;4154146;28;20037;-68
2023/03/20 07:58:46;;;;;;;14.13;9.32;;;;;;;10.90;74.28;101043.22;4159779;28;20045;-68
2023/03/20 08:00:49;;;;;;;15.70;10.07;;;;;;;10.96;73.56;101048.56;4155340;28;20064;-68
2023/03/20 08:02:52;;;;;;;14.73;9.65;;;;;;;11.02;73.64;101046.09;4177218;28;20068;-68
2023/03/20 08:04:55;;;;;;;13.52;9.45;;;;;;;11.00;74.12;101053.00;4176539;28;20475;-68
2023/03/20 08:07:00;;;;;;;15.07;8.77;;;;;;;10.99;74.05;101053.81;4177700;28;20132;-68
2023/03/20 08:09:03;;;;;;;11.80;8.43;;;;;;;11.02;73.85;101048.69;4177880;28;20091;-68
2023/03/20 08:11:08;;;;;;;14.90;10.38;;;;;;;10.97;73.35;101055.53;4159794;28;20467;-68
2023/03/20 08:13:11;;;;;;;13.65;9.25;;;;;;;11.00;73.71;101053.00;4175451;28;20065;-68
2023/03/20 08:15:14;;;;;;;16.65;10.10;;;;;;;11.04;73.37;101048.72;4177425;28;20033;-68
2023/03/20 08:17:17;;;;;;;18.85;11.73;;;;;;;11.04;73.63;101052.22;4157286;28;20128;-68
2023/03/20 08:19:23;;;;;;;14.50;9.95;;;;;;;11.07;73.28;101057.47;4156675;28;20069;-68
2023/03/20 08:21:39;;;;;;;15.07;10.25;;;;;;;11.03;73.50;101052.19;4141178;28;20121;-66
2023/03/20 08:23:43;;;;;;;16.27;10.50;;;;;;;11.00;73.96;101060.78;4141125;28;20041;-66
2023/03/20 08:25:47;;;;;;;19.73;10.93;;;;;;;10.94;73.10;101056.31;4127573;28;20042;-66
2023/03/20 08:27:50;;;;;;;17.45;10.38;;;;;;;10.96;74.10;101066.78;4141395;28;20104;-66
2023/03/20 08:29:53;;;;;;;16.20;9.38;;;;;;;11.01;73.32;101057.34;4144898;28;20072;-67
2023/03/20 08:31:56;;;;;;;15.50;9.75;;;;;;;11.02;73.57;101059.09;4138592;28;20030;-66
2023/03/20 08:33:59;;;;;;;14.88;9.65;;;;;;;11.00;73.34;101061.66;4145617;28;20096;-66
2023/03/20 08:36:02;;;;;;;15.77;9.68;;;;;;;11.02;73.85;101061.69;4141192;28;20041;-67
2023/03/20 08:38:06;;;;;;;22.20;11.82;;;;;;;11.02;73.90;101066.91;4145195;28;20045;-66
2023/03/20 08:40:11;;;;;;;21.50;12.18;;;;;;;11.12;73.26;101066.25;4144640;28;20492;-67
2023/03/20 08:42:15;;;;;;;16.75;10.77;;;;;;;11.10;73.47;101062.75;4143710;28;20104;-66
2023/03/20 08:44:18;;;;;;;18.92;11.13;;;;;;;11.05;73.74;101056.56;4111606;28;20549;-66
2023/03/20 08:46:20;;;;;;;17.70;11.30;;;;;;;11.05;73.57;101063.50;4141758;28;20046;-67
2023/03/20 08:48:25;;;;;;;19.38;11.43;;;;;;;11.10;73.08;101072.28;4142187;28;20100;-66
2023/03/20 08:50:27;;;;;;;22.27;12.40;;;;;;;11.12;73.39;101067.97;4144530;28;20042;-66
2023/03/20 08:52:30;;;;;;;18.60;10.90;;;;;;;11.10;73.12;101077.50;4145175;28;20030;-66
2023/03/20 08:54:33;;;;;;;21.45;12.05;;;;;;;11.03;73.88;101073.88;4143973;28;20046;-66
2023/03/20 08:56:38;;;;;;;27.05;13.65;;;;;;;11.01;73.49;101078.16;4126817;28;20050;-66
2023/03/20 08:58:40;;;;;;;22.10;12.30;;;;;;;11.09;74.27;101092.22;4125822;28;20101;-66
2023/03/20 09:00:44;;;;;;;22.77;13.80;;;;;;;11.10;74.04;101088.78;4143185;28;20077;-66
2023/03/20 09:02:47;;;;;;;25.23;12.73;;;;;;;11.15;73.57;101100.16;4127041;28;20038;-66
2023/03/20 09:04:49;;;;;;;21.88;12.35;;;;;;;11.11;72.94;101100.03;4144457;28;20064;-66
2023/03/20 09:06:52;;;;;;;15.27;10.32;;;;;;;11.09;73.04;101097.41;4145291;28;20441;-66
2023/03/20 09:08:55;;;;;;;13.27;9.23;;;;;;;11.10;71.93;101093.09;4144422;28;20387;-66
2023/03/20 09:10:59;;;;;;;14.15;9.43;;;;;;;11.00;72.33;101092.88;4121054;28;20042;-66
2023/03/20 09:13:03;;;;;;;13.07;8.48;;;;;;;10.96;71.69;101090.19;4139470;28;20525;-66
2023/03/20 09:15:26;;;;;;;13.18;8.93;;;;;;;11.03;72.04;101091.22;4139457;28;20563;-66
2023/03/20 09:17:31;;;;;;;14.27;9.47;;;;;;;11.07;71.48;101093.00;4144440;28;20060;-66
2023/03/20 09:19:36;;;;;;;15.80;9.90;;;;;;;11.07;72.16;101099.13;4144802;28;20297;-66
2023/03/20 09:21:39;;;;;;;17.05;8.73;;;;;;;11.13;71.58;101101.84;4145430;28;20300;-66
2023/03/20 09:23:42;;;;;;;15.07;9.88;;;;;;;11.26;71.69;101105.59;4128046;28;20514;-66
2023/03/20 09:25:45;;;;;;;18.00;9.82;;;;;;;11.33;71.57;101104.00;4146215;28;20038;-66
2023/03/20 09:27:54;;;;;;;13.13;9.43;;;;;;;11.38;70.53;101102.38;4146267;28;20073;-67
2023/03/20 09:29:58;;;;;;;17.83;10.10;;;;;;;11.30;70.71;101107.44;4144368;28;20461;-66
2023/03/20 09:32:01;;;;;;;17.23;9.45;;;;;;;11.41;70.28;101094.63;4146101;28;20081;-66
2023/03/20 09:34:03;;;;;;;17.00;11.60;;;;;;;11.53;70.62;101097.50;4146688;28;20041;-67
2023/03/20 09:36:10;;;;;;;24.55;14.48;;;;;;;11.64;71.15;101099.44;4141539;28;20452;-66
2023/03/20 09:38:13;;;;;;;21.70;11.40;;;;;;;11.73;70.54;101099.63;4141160;28;20042;-66
2023/03/20 09:40:26;;;;;;;21.75;12.13;;;;;;;11.88;70.59;101106.84;4144304;28;20426;-66
2023/03/20 09:42:43;;;;;;;17.77;11.40;;;;;;;12.00;70.04;101108.84;4144197;28;20125;-66
2023/03/20 09:44:57;;;;;;;17.38;11.90;;;;;;;11.89;69.76;101108.63;4146597;28;20096;-66
2023/03/20 09:47:12;;;;;;;16.57;10.47;;;;;;;11.87;69.90;101108.59;4140891;28;20453;-66
2023/03/20 09:49:36;;;;;;;20.83;10.90;;;;;;;11.86;70.69;101111.16;4143409;28;20045;-67
2023/03/20 09:51:44;;;;;;;20.42;10.48;;;;;;;11.87;69.68;101106.00;4139976;28;20670;-67
2023/03/20 09:53:51;;;;;;;13.68;8.45;;;;;;;11.88;69.02;101115.56;4146136;28;20049;-67
2023/03/20 09:55:56;;;;;;;12.13;7.65;;;;;;;11.80;68.63;101111.91;4127524;28;20525;-67